Peshastin, WA (98847)

5:51 AM PDT on April 25, 2017 (GMT -0700)
Mountain Home Lodge Leavenworth, WA | | Change Station

Elev 2044 ft 47.57 °N, 120.65 °W | Updated 4 minutes ago

Clear
Clear
37.5 °F
Feels Like 34 °F
N
4.0
Wind Variable Wind from East

Today
High -- | Low -- °F
--% Chance of Precip.
Yesterday
High -- | Low -- °F
Precip. -- in
Pressure 29.85 in
Visibility 10.0 miles
Clouds Clear
Windchill 34 °F
Dew Point 32 °F
Humidity 79%
Rainfall 0.00 in
Snow Depth Not available.
5:55 AM 8:06 PM
Waning Crescent, 1% visible
METAR KEAT 251155Z AUTO 31011KT 10SM CLR 08/01 A2985 RMK AO2 SLP108 T00780011 10100 20078 50008
Pressure 29.85 in
Visibility 10.0 miles
Clouds Clear
Windchill 34 °F
Dew Point 32 °F
Humidity 79%
Rainfall 0.00 in
Snow Depth Not available.
5:55 AM 8:06 PM
Waning Crescent, 1% visible
METAR KEAT 251155Z AUTO 31011KT 10SM CLR 08/01 A2985 RMK AO2 SLP108 T00780011 10100 20078 50008

Get Severe Weather Alerts

Thanks for signing up!

Be on the lookout for a verification email in your inbox.

You'll start receiving the daily forecast at 8 AM.

×

10-Day Weather Forecast

Almanac

Astronomy

Apr. 25, 2017 Rise Set
Actual Time
Civil Twilight
Nautical Twilight
Astronomical Twilight
Moon
Length of Visible Light
Length of Day
Tomorrow will be .
, % of the Moon is Illuminated

Today's Extremes

State Highs State Lows

Community

WunderPhotos

WunderBlog® & News

Nearby

Air Quality

  Air Quality AQ Index Pollutant
Not available.

Snow Depth

Station Depth Elevation

Earthquake Activity

City Distance Mag. Time & Date
Minimum magnitude displayed is 2.5.

Coastal Water Temperatures

Place Temperature

Stations

Nearby Weather Stations

Station Location Temp. Windchill Dew Point Humidity Wind Precip. Elev Updated Type
                   

Watches & Warnings

There are currently no watches in effect.